Iver Agile — IBHW — position and weather

sailwx.info

Track history (hours):
 
Tides and Currents Weather Stations Pressure Air Temp Water Temp Dewpoint Dewpoint Depression Visibility Wind Speed Wind Dir Waves Ship Positions

Iver Agile

Last reported at 2014-Dec-23 13:18 UTC. Time now 2014-Dec-29 05:16 UTC.
Position N 43°14' E 010°05'.

Length 110 m; draft 6.5 m.

Type: Tanker. MMSI: 247103700.

Date/timePositionNaut miles runAvg speedWind from/ knotsBaromVisibWave heightAir tempDewpointWater temp
2014-Dec-23 13:18N 43°14' E 010°05'1013.4
2014-Dec-23 12:33N 43°24' E 010°09'1111.1
2014-Dec-23 11:33N 43°33' E 010°17'2 2.3
2014-Dec-23 10:32N 43°35' E 010°19'0 0.0
2014-Dec-22 13:17N 43°35' E 010°19'0 0.0
2014-Dec-22 06:32N 43°35' E 010°19'0 0.0
2014-Dec-22 04:26N 43°35' E 010°19'0 0.0
2014-Dec-22 03:20N 43°35' E 010°19'0 0.0
2014-Dec-22 02:29N 43°35' E 010°19'0 0.0
2014-Dec-22 00:08N 43°35' E 010°19'0 0.0
2014-Dec-21 23:14N 43°35' E 010°19'0 0.0
2014-Dec-21 22:11N 43°35' E 010°19'0 0.0
2014-Dec-21 19:17N 43°35' E 010°19'0 0.1
2014-Dec-21 18:33N 43°35' E 010°19'4 4.2
2014-Dec-21 17:33N 43°31' E 010°16'1 0.7
2014-Dec-21 16:33N 43°31' E 010°16'9 9.0
2014-Dec-21 15:33N 43°23' E 010°10'1414.0
2014-Dec-21 14:33N 43°09' E 010°04'1413.9
2014-Dec-21 13:33N 42°56' E 009°58'1714.8
2014-Dec-21 12:23N 42°40' E 009°51'19514.1
2014-Dec-20 22:32N 39°25' E 009°48'1714.3
2014-Dec-20 21:19N 39°08' E 009°44'1513.6
2014-Dec-20 20:12N 38°57' E 009°30'914.5
2014-Dec-20 19:33N 38°55' E 009°18'1514.5
2014-Dec-20 18:33N 38°51' E 009°00'1414.3
2014-Dec-20 17:33N 38°49' E 008°42'1514.4
2014-Dec-20 16:33N 38°51' E 008°23'1514.0
2014-Dec-20 15:28N 39°01' E 008°09'1714.3
2014-Dec-20 14:16N 39°15' E 007°57'1114.7
2014-Dec-20 13:29N 39°26' E 007°51'23 7.6
2014-Dec-20 10:25N 39°47' E 008°04'1212.3
2014-Dec-20 09:26N 39°47' E 008°20'8 0.3
2014-Dec-19 03:22N 39°52' E 008°29'7 0.9
2014-Dec-18 19:21N 39°48' E 008°21'50 9.9
2014-Dec-18 14:19N 38°58' E 008°19'27 1.0
2014-Dec-17 11:33N 38°49' E 008°51'1312.9
2014-Dec-17 10:33N 38°52' E 009°07'1313.4
2014-Dec-17 09:33N 38°56' E 009°23'1612.7
2014-Dec-17 08:20N 39°05' E 009°40'1413.4
2014-Dec-17 07:19N 39°18' E 009°44'24113.4
2014-Dec-16 13:15N 43°19' E 010°05'913.2
2014-Dec-16 12:33N 43°27' E 010°08'1010.0
2014-Dec-16 11:33N 43°34' E 010°18'1 0.0
2014-Dec-15 03:25N 43°35' E 010°19'0 0.0
2014-Dec-15 01:25N 43°35' E 010°19'0 0.0
2014-Dec-15 00:25N 43°35' E 010°19'0 0.0
2014-Dec-14 23:25N 43°35' E 010°19'0 0.0
2014-Dec-14 20:25N 43°35' E 010°19'0 0.0
2014-Dec-14 17:31N 43°35' E 010°19'0 0.0
2014-Dec-14 16:31N 43°35' E 010°19'0 0.0
2014-Dec-14 15:31N 43°35' E 010°19'1 1.1
2014-Dec-14 14:34N 43°34' E 010°18'3 3.4
2014-Dec-14 13:33N 43°31' E 010°17'0 0.1
2014-Dec-14 12:33N 43°31' E 010°17'0 0.0
2014-Dec-14 11:33N 43°31' E 010°17'0 0.0
2014-Dec-14 10:33N 43°31' E 010°17'0 0.0
2014-Dec-14 09:33N 43°31' E 010°17'0 0.0
2014-Dec-14 08:24N 43°31' E 010°17'0 0.0
2014-Dec-14 07:33N 43°31' E 010°17'0 0.0
2014-Dec-14 06:33N 43°31' E 010°17'0 0.0
2014-Dec-14 05:30N 43°31' E 010°17'0 0.0
2014-Dec-14 04:33N 43°31' E 010°17'0 0.0
2014-Dec-14 03:27N 43°31' E 010°17'0 0.0
2014-Dec-14 02:33N 43°31' E 010°17'0 0.0
2014-Dec-14 01:33N 43°31' E 010°17'0 0.0
2014-Dec-14 00:33N 43°31' E 010°17'0 0.0
2014-Dec-13 23:33N 43°31' E 010°17'0 0.0
2014-Dec-13 22:33N 43°31' E 010°17'0 0.0
2014-Dec-13 21:33N 43°31' E 010°17'0 0.0
2014-Dec-13 20:33N 43°31' E 010°17'0 0.0
2014-Dec-13 19:33N 43°31' E 010°17'0 0.0
2014-Dec-13 18:33N 43°31' E 010°17'0 0.0
2014-Dec-13 17:33N 43°31' E 010°17'0 0.0
2014-Dec-13 16:33N 43°31' E 010°17'0 0.0
2014-Dec-13 15:27N 43°31' E 010°17'0 0.0
2014-Dec-13 14:33N 43°31' E 010°17'0 0.0
2014-Dec-13 13:30N 43°31' E 010°17'  
Track history (hours):
 
Tides and Currents Weather Stations Pressure Air Temp Water Temp Dewpoint Dewpoint Depression Visibility Wind Speed Wind Dir Waves Ship Positions

Iver Agile

Last reported at 2014-Dec-23 13:18 UTC. Time now 2014-Dec-29 05:16 UTC.
Position N 43°14' E 010°05'.

Length 110 m; draft 6.5 m.

Type: Tanker. MMSI: 247103700.

Date/timePositionNaut miles runAvg speedWind from/ knotsBaromVisibWave heightAir tempDewpointWater temp
2014-Dec-23 13:18N 43°14' E 010°05'1013.4
2014-Dec-23 12:33N 43°24' E 010°09'1111.1
2014-Dec-23 11:33N 43°33' E 010°17'2 2.3
2014-Dec-23 10:32N 43°35' E 010°19'0 0.0
2014-Dec-22 13:17N 43°35' E 010°19'0 0.0
2014-Dec-22 06:32N 43°35' E 010°19'0 0.0
2014-Dec-22 04:26N 43°35' E 010°19'0 0.0
2014-Dec-22 03:20N 43°35' E 010°19'0 0.0
2014-Dec-22 02:29N 43°35' E 010°19'0 0.0
2014-Dec-22 00:08N 43°35' E 010°19'0 0.0
2014-Dec-21 23:14N 43°35' E 010°19'0 0.0
2014-Dec-21 22:11N 43°35' E 010°19'0 0.0
2014-Dec-21 19:17N 43°35' E 010°19'0 0.1
2014-Dec-21 18:33N 43°35' E 010°19'4 4.2
2014-Dec-21 17:33N 43°31' E 010°16'1 0.7
2014-Dec-21 16:33N 43°31' E 010°16'9 9.0
2014-Dec-21 15:33N 43°23' E 010°10'1414.0
2014-Dec-21 14:33N 43°09' E 010°04'1413.9
2014-Dec-21 13:33N 42°56' E 009°58'1714.8
2014-Dec-21 12:23N 42°40' E 009°51'19514.1
2014-Dec-20 22:32N 39°25' E 009°48'1714.3
2014-Dec-20 21:19N 39°08' E 009°44'1513.6
2014-Dec-20 20:12N 38°57' E 009°30'914.5
2014-Dec-20 19:33N 38°55' E 009°18'1514.5
2014-Dec-20 18:33N 38°51' E 009°00'1414.3
2014-Dec-20 17:33N 38°49' E 008°42'1514.4
2014-Dec-20 16:33N 38°51' E 008°23'1514.0
2014-Dec-20 15:28N 39°01' E 008°09'1714.3
2014-Dec-20 14:16N 39°15' E 007°57'1114.7
2014-Dec-20 13:29N 39°26' E 007°51'23 7.6
2014-Dec-20 10:25N 39°47' E 008°04'1212.3
2014-Dec-20 09:26N 39°47' E 008°20'8 0.3
2014-Dec-19 03:22N 39°52' E 008°29'7 0.9
2014-Dec-18 19:21N 39°48' E 008°21'50 9.9
2014-Dec-18 14:19N 38°58' E 008°19'27 1.0
2014-Dec-17 11:33N 38°49' E 008°51'1312.9
2014-Dec-17 10:33N 38°52' E 009°07'1313.4
2014-Dec-17 09:33N 38°56' E 009°23'1612.7
2014-Dec-17 08:20N 39°05' E 009°40'1413.4
2014-Dec-17 07:19N 39°18' E 009°44'24113.4
2014-Dec-16 13:15N 43°19' E 010°05'913.2
2014-Dec-16 12:33N 43°27' E 010°08'1010.0
2014-Dec-16 11:33N 43°34' E 010°18'1 0.0
2014-Dec-15 03:25N 43°35' E 010°19'0 0.0
2014-Dec-15 01:25N 43°35' E 010°19'0 0.0
2014-Dec-15 00:25N 43°35' E 010°19'0 0.0
2014-Dec-14 23:25N 43°35' E 010°19'0 0.0
2014-Dec-14 20:25N 43°35' E 010°19'0 0.0
2014-Dec-14 17:31N 43°35' E 010°19'0 0.0
2014-Dec-14 16:31N 43°35' E 010°19'0 0.0
2014-Dec-14 15:31N 43°35' E 010°19'1 1.1
2014-Dec-14 14:34N 43°34' E 010°18'3 3.4
2014-Dec-14 13:33N 43°31' E 010°17'0 0.1
2014-Dec-14 12:33N 43°31' E 010°17'0 0.0
2014-Dec-14 11:33N 43°31' E 010°17'0 0.0
2014-Dec-14 10:33N 43°31' E 010°17'0 0.0
2014-Dec-14 09:33N 43°31' E 010°17'0 0.0
2014-Dec-14 08:24N 43°31' E 010°17'0 0.0
2014-Dec-14 07:33N 43°31' E 010°17'0 0.0
2014-Dec-14 06:33N 43°31' E 010°17'0 0.0
2014-Dec-14 05:30N 43°31' E 010°17'0 0.0
2014-Dec-14 04:33N 43°31' E 010°17'0 0.0
2014-Dec-14 03:27N 43°31' E 010°17'0 0.0
2014-Dec-14 02:33N 43°31' E 010°17'0 0.0
2014-Dec-14 01:33N 43°31' E 010°17'0 0.0
2014-Dec-14 00:33N 43°31' E 010°17'0 0.0
2014-Dec-13 23:33N 43°31' E 010°17'0 0.0
2014-Dec-13 22:33N 43°31' E 010°17'0 0.0
2014-Dec-13 21:33N 43°31' E 010°17'0 0.0
2014-Dec-13 20:33N 43°31' E 010°17'0 0.0
2014-Dec-13 19:33N 43°31' E 010°17'0 0.0
2014-Dec-13 18:33N 43°31' E 010°17'0 0.0
2014-Dec-13 17:33N 43°31' E 010°17'0 0.0
2014-Dec-13 16:33N 43°31' E 010°17'0 0.0
2014-Dec-13 15:27N 43°31' E 010°17'0 0.0
2014-Dec-13 14:33N 43°31' E 010°17'0 0.0
2014-Dec-13 13:30N 43°31' E 010°17'  

Dump ship's entire track history